createdAt,value
2022-08-02T00:01:21.845Z,99771.66
2022-08-02T00:03:49.756Z,99762.50
2022-08-02T00:06:17.471Z,99759.66
2022-08-02T00:08:44.910Z,99767.47
2022-08-02T01:03:25.921Z,99785.19
2022-08-02T01:06:02.391Z,99780.53
2022-08-02T01:08:41.365Z,99777.22
2022-08-02T01:11:11.568Z,99784.06
2022-08-02T01:13:39.202Z,99783.06
2022-08-02T01:16:15.121Z,99774.00
2022-08-02T01:18:46.078Z,99773.88
2022-08-02T01:21:33.827Z,99776.41
2022-08-02T01:24:23.982Z,99782.94
2022-08-02T01:27:04.683Z,99786.31
2022-08-02T01:29:35.444Z,99782.63
2022-08-02T01:32:11.394Z,99777.22
2022-08-02T01:34:54.958Z,99780.06
2022-08-02T01:37:43.536Z,99787.59
2022-08-02T01:40:21.386Z,99785.06
2022-08-02T01:42:52.018Z,99787.44
2022-08-02T01:45:21.297Z,99784.59
2022-08-02T01:47:49.282Z,99790.41
2022-08-02T01:50:18.277Z,99796.47
2022-08-02T01:52:53.483Z,99793.09
2022-08-02T01:55:33.384Z,99801.56
2022-08-02T01:58:05.557Z,99805.78
2022-08-02T02:00:35.721Z,99809.84
2022-08-02T02:03:05.637Z,99811.13
2022-08-02T02:05:35.288Z,99808.03
2022-08-02T02:08:04.617Z,99812.84
2022-08-02T02:10:34.102Z,99815.84
2022-08-02T02:13:05.533Z,99814.25
2022-08-02T02:15:33.379Z,99815.94
2022-08-02T02:18:12.475Z,99818.78
2022-08-02T02:20:42.643Z,99827.00
2022-08-02T02:23:11.379Z,99826.66
2022-08-02T02:25:46.546Z,99829.91
2022-08-02T02:28:18.803Z,99817.63
2022-08-02T02:30:49.355Z,99818.87
2022-08-02T02:33:18.747Z,99816.47
2022-08-02T02:35:48.329Z,99818.81
2022-08-02T02:38:18.408Z,99815.69
2022-08-02T02:40:50.017Z,99824.91
2022-08-02T02:43:17.734Z,99824.63
2022-08-02T02:45:45.908Z,99827.19
2022-08-02T02:48:15.013Z,99836.66
2022-08-02T02:50:43.448Z,99827.31
2022-08-02T02:53:12.116Z,99828.72
2022-08-02T02:55:41.173Z,99824.47
2022-08-02T02:58:29.153Z,99819.13
2022-08-02T03:01:21.113Z,99818.69
2022-08-02T03:04:10.956Z,99817.44
2022-08-02T03:06:39.893Z,99819.53
2022-08-02T03:09:08.551Z,99814.31
2022-08-02T03:11:40.505Z,99811.63
2022-08-02T03:14:12.367Z,99801.91
2022-08-02T03:16:44.200Z,99798.22
2022-08-02T03:19:11.783Z,99794.91
2022-08-02T03:21:39.713Z,99794.25
2022-08-02T03:24:08.036Z,99797.38
2022-08-02T03:26:36.145Z,99808.13
2022-08-02T03:29:10.233Z,99810.19
2022-08-02T03:31:41.974Z,99811.22
2022-08-02T03:34:10.306Z,99816.59
2022-08-02T03:36:39.049Z,99811.81
2022-08-02T03:39:07.092Z,99821.84
2022-08-02T03:41:36.682Z,99824.09
2022-08-02T03:44:05.101Z,99821.41
2022-08-02T03:46:33.186Z,99831.25
2022-08-02T03:49:02.743Z,99821.91
2022-08-02T03:51:30.481Z,99821.91
2022-08-02T03:53:58.085Z,99828.88
2022-08-02T03:56:25.894Z,99838.75
2022-08-02T03:59:14.565Z,99838.38
2022-08-02T04:01:42.801Z,99827.72
2022-08-02T04:04:10.757Z,99842.13
2022-08-02T04:06:40.084Z,99839.94
2022-08-02T04:09:10.411Z,99836.19
2022-08-02T04:11:38.328Z,99837.06
2022-08-02T04:14:09.799Z,99841.09
2022-08-02T04:17:03.308Z,99844.53
2022-08-02T04:19:49.023Z,99844.25
2022-08-02T04:22:20.035Z,99845.44
2022-08-02T04:24:51.310Z,99839.47
2022-08-02T04:27:51.221Z,99849.47
2022-08-02T04:30:08.980Z,99856.00
2022-08-02T04:32:37.150Z,99852.88
2022-08-02T04:35:21.431Z,99857.69
2022-08-02T04:38:09.491Z,99859.94
2022-08-02T04:40:37.750Z,99853.84
2022-08-02T04:43:06.215Z,99856.41
2022-08-02T04:45:33.701Z,99852.31
2022-08-02T04:48:05.050Z,99851.16
2022-08-02T04:50:33.858Z,99846.31
2022-08-02T04:53:01.830Z,99860.06
2022-08-02T04:55:30.267Z,99857.06
2022-08-02T04:57:58.638Z,99858.06
2022-08-02T05:00:28.094Z,99853.78
2022-08-02T05:02:59.751Z,99858.13
2022-08-02T05:05:28.467Z,99871.41
2022-08-02T05:07:56.077Z,99877.84
2022-08-02T05:10:23.878Z,99874.50
2022-08-02T05:12:52.131Z,99877.31
2022-08-02T05:15:19.575Z,99886.25
2022-08-02T05:17:50.917Z,99887.31
2022-08-02T05:20:20.341Z,99887.69
2022-08-02T05:22:48.066Z,99885.88
2022-08-02T05:25:15.714Z,99886.97
2022-08-02T05:27:43.667Z,99888.91
2022-08-02T05:30:11.630Z,99891.88
2022-08-02T05:32:50.519Z,99899.09
2022-08-02T05:35:20.410Z,99904.13
2022-08-02T05:37:52.189Z,99900.53
2022-08-02T05:40:25.656Z,99899.81
2022-08-02T05:42:54.616Z,99896.66
2022-08-02T05:45:23.028Z,99906.56
2022-08-02T05:47:51.055Z,99905.59
2022-08-02T05:50:19.417Z,99915.16
2022-08-02T05:52:52.384Z,99916.16
2022-08-02T05:55:41.966Z,99907.47
2022-08-02T05:58:29.873Z,99902.72
2022-08-02T06:01:00.781Z,99908.22
2022-08-02T06:03:36.984Z,99906.69
2022-08-02T06:06:16.360Z,99898.34
2022-08-02T06:08:47.953Z,99905.44
2022-08-02T06:11:18.500Z,99901.84
2022-08-02T06:13:47.109Z,99903.38
2022-08-02T06:16:14.960Z,99904.78
2022-08-02T06:18:43.788Z,99907.50
2022-08-02T06:22:32.482Z,99904.81
2022-08-02T06:24:02.669Z,99906.06
2022-08-02T06:26:30.544Z,99906.56
2022-08-02T06:28:58.749Z,99908.00
2022-08-02T06:31:26.775Z,99910.22
2022-08-02T06:33:57.730Z,99912.75
2022-08-02T06:36:43.486Z,99908.84
2022-08-02T06:39:25.867Z,99907.00
2022-08-02T06:41:56.888Z,99918.66
2022-08-02T06:44:48.121Z,99912.88
2022-08-02T06:47:13.493Z,99914.03
2022-08-02T06:49:52.155Z,99909.41
2022-08-02T06:59:39.711Z,99916.87
2022-08-02T07:02:08.145Z,99915.94
2022-08-02T07:04:39.347Z,99911.22
2022-08-02T07:07:10.399Z,99909.06
2022-08-02T07:09:57.017Z,99904.72
2022-08-02T07:12:35.210Z,99900.94
2022-08-02T07:15:07.598Z,99902.97
2022-08-02T07:17:35.965Z,99891.78
2022-08-02T07:20:07.307Z,99896.50
2022-08-02T07:22:36.463Z,99897.78
2022-08-02T07:25:05.556Z,99893.06
2022-08-02T07:27:35.225Z,99898.19
2022-08-02T07:30:07.712Z,99898.25
2022-08-02T07:32:36.457Z,99887.66
2022-08-02T07:35:06.555Z,99890.47
2022-08-02T07:37:55.307Z,99885.06
2022-08-02T07:40:25.768Z,99884.19
2022-08-02T07:50:12.438Z,99875.25
2022-08-02T07:52:40.902Z,99876.50
2022-08-02T07:55:13.426Z,99880.13
2022-08-02T07:57:46.407Z,99877.66
2022-08-02T08:00:16.862Z,99880.72
2022-08-02T08:02:49.064Z,99883.25
2022-08-02T08:05:19.508Z,99885.69
2022-08-02T08:07:49.705Z,99875.53
2022-08-02T08:10:17.752Z,99880.53
2022-08-02T08:12:46.296Z,99885.03
2022-08-02T08:15:15.312Z,99890.25
2022-08-02T08:17:44.386Z,99883.94
2022-08-02T08:20:16.045Z,99891.69
2022-08-02T08:22:44.270Z,99888.19
2022-08-02T08:25:13.336Z,99886.97
2022-08-02T08:27:52.702Z,99894.13
2022-08-02T08:30:31.360Z,99891.69
2022-08-02T08:33:08.514Z,99888.25
2022-08-02T08:35:44.191Z,99892.69
2022-08-02T08:38:12.987Z,99897.84
2022-08-02T08:40:42.253Z,99892.56
2022-08-02T08:43:14.151Z,99895.97
2022-08-02T08:45:55.952Z,99893.87
2022-08-02T08:51:16.336Z,99893.59
2022-08-02T08:53:44.495Z,99895.25
2022-08-02T08:56:16.292Z,99896.16
2022-08-02T08:58:47.675Z,99898.81
2022-08-02T09:01:17.907Z,99898.56
2022-08-02T09:03:46.666Z,99898.00
2022-08-02T09:06:14.986Z,99898.72
2022-08-02T09:08:43.261Z,99894.34
2022-08-02T09:11:16.927Z,99899.41
2022-08-02T09:13:53.061Z,99896.88
2022-08-02T09:16:37.476Z,99893.09
2022-08-02T09:19:26.056Z,99898.94
2022-08-02T09:22:08.010Z,99901.75
2022-08-02T09:24:45.976Z,99897.78
2022-08-02T09:27:19.723Z,99898.06
2022-08-02T09:30:12.424Z,99891.63
2022-08-02T09:32:52.568Z,99890.59
2022-08-02T09:36:06.998Z,99894.34
2022-08-02T09:38:35.668Z,99888.88
2022-08-02T09:41:06.201Z,99897.66
2022-08-02T09:43:52.014Z,99891.41
2022-08-02T09:46:30.968Z,99887.81
2022-08-02T09:49:09.760Z,99897.69
2022-08-02T09:51:51.439Z,99888.88
2022-08-02T09:54:22.285Z,99887.19
2022-08-02T09:56:54.103Z,99883.88
2022-08-02T09:59:30.282Z,99880.53
2022-08-02T10:02:17.129Z,99879.63
2022-08-02T10:04:53.415Z,99870.56
2022-08-02T10:07:31.413Z,99867.44
2022-08-02T10:10:02.332Z,99867.66
2022-08-02T10:12:37.458Z,99872.47
2022-08-02T10:15:09.472Z,99868.91
2022-08-02T10:17:44.475Z,99871.84
2022-08-02T10:20:17.827Z,99864.06
2022-08-02T10:25:28.439Z,99860.69
2022-08-02T10:28:06.032Z,99861.72
2022-08-02T10:33:19.510Z,99854.59
2022-08-02T10:36:04.435Z,99857.31
2022-08-02T10:38:36.609Z,99860.47
2022-08-02T10:41:20.416Z,99853.12
2022-08-02T10:46:37.433Z,99849.37
2022-08-02T10:49:37.443Z,99848.50
2022-08-02T10:52:03.194Z,99852.38
2022-08-02T10:54:31.790Z,99843.97
2022-08-02T10:57:15.958Z,99854.38
2022-08-02T11:00:17.340Z,99848.97
2022-08-02T11:02:53.206Z,99849.81
2022-08-02T11:05:42.549Z,99855.63
2022-08-02T11:08:22.515Z,99846.19
2022-08-02T11:10:50.512Z,99849.31
2022-08-02T11:13:20.436Z,99849.28
2022-08-02T11:16:11.193Z,99844.28
2022-08-02T11:18:51.918Z,99847.22
2022-08-02T11:21:29.377Z,99839.66
2022-08-02T11:24:25.464Z,99835.44
2022-08-02T11:27:05.393Z,99840.94
2022-08-02T11:29:41.502Z,99844.28
2022-08-02T11:32:30.631Z,99842.16
2022-08-02T11:35:03.513Z,99839.22
2022-08-02T11:37:37.898Z,99846.50
2022-08-02T11:40:19.818Z,99840.84
2022-08-02T11:42:51.632Z,99836.84
2022-08-02T11:45:29.621Z,99832.06
2022-08-02T11:48:00.034Z,99835.44
2022-08-02T11:50:30.696Z,99827.44
2022-08-02T11:53:00.546Z,99834.19
2022-08-02T11:55:32.514Z,99827.97
2022-08-02T11:58:04.571Z,99829.41
2022-08-02T12:00:36.409Z,99832.66
2022-08-02T12:03:08.620Z,99827.47
2022-08-02T12:08:25.941Z,99842.88
2022-08-02T12:11:01.223Z,99836.72
2022-08-02T12:13:56.796Z,99841.78
2022-08-02T12:16:57.417Z,99837.59
2022-08-02T12:19:29.677Z,99839.38
2022-08-02T12:22:24.261Z,99840.22
2022-08-02T12:24:56.707Z,99833.06
2022-08-02T12:27:33.643Z,99825.69
2022-08-02T12:30:27.679Z,99827.66
2022-08-02T12:33:13.298Z,99824.94
2022-08-02T12:35:47.349Z,99818.84
2022-08-02T12:38:28.738Z,99812.06
2022-08-02T12:41:30.861Z,99807.69
2022-08-02T12:44:02.841Z,99809.78
2022-08-02T12:46:41.947Z,99818.13
2022-08-02T12:49:21.295Z,99807.59
2022-08-02T12:51:57.684Z,99799.81
2022-08-02T12:54:33.319Z,99810.16
2022-08-02T12:57:17.877Z,99812.72
2022-08-02T12:59:54.311Z,99808.19
2022-08-02T13:02:27.409Z,99808.38
2022-08-02T13:05:04.259Z,99809.97
2022-08-02T13:07:43.367Z,99797.97
2022-08-02T13:10:12.595Z,99801.72
2022-08-02T13:12:48.362Z,99800.16
2022-08-02T13:15:49.818Z,99805.81
2022-08-02T13:18:06.295Z,99800.88
2022-08-02T13:20:49.566Z,99797.91
2022-08-02T13:23:21.622Z,99786.59
2022-08-02T13:25:52.626Z,99788.09
2022-08-02T13:28:32.394Z,99787.06
2022-08-02T13:31:34.166Z,99789.94
2022-08-02T13:34:00.610Z,99788.75
2022-08-02T13:36:28.945Z,99786.97
2022-08-02T13:38:57.905Z,99770.94
2022-08-02T13:41:34.603Z,99784.12
2022-08-02T13:44:13.761Z,99782.09
2022-08-02T13:46:45.319Z,99785.72
2022-08-02T13:49:19.041Z,99780.53
2022-08-02T13:51:49.577Z,99786.84
2022-08-02T13:54:22.313Z,99784.62
2022-08-02T13:56:50.983Z,99778.63
2022-08-02T13:59:55.829Z,99776.78
2022-08-02T14:02:17.224Z,99780.94
2022-08-02T14:04:50.510Z,99771.91
2022-08-02T14:07:39.133Z,99774.81
2022-08-02T14:10:12.734Z,99775.59
2022-08-02T14:12:43.317Z,99770.00
2022-08-02T14:15:11.436Z,99767.06
2022-08-02T14:17:47.697Z,99765.94
2022-08-02T14:20:20.165Z,99765.63
2022-08-02T14:22:56.351Z,99764.22
2022-08-02T14:25:31.369Z,99761.28
2022-08-02T14:28:07.533Z,99766.63
2022-08-02T14:30:37.609Z,99772.87
2022-08-02T14:33:06.367Z,99776.19
2022-08-02T14:38:14.615Z,99761.44
2022-08-02T14:40:46.357Z,99765.16
2022-08-02T14:43:35.946Z,99757.16
2022-08-02T14:46:10.330Z,99759.66
2022-08-02T14:51:14.482Z,99759.59
2022-08-02T14:54:02.821Z,99759.75
2022-08-02T14:59:13.369Z,99765.34
2022-08-02T15:01:43.699Z,99768.94
2022-08-02T15:04:20.072Z,99763.41
2022-08-02T15:06:55.289Z,99767.78
2022-08-02T15:09:25.467Z,99775.66
2022-08-02T15:12:05.650Z,99770.88
2022-08-02T15:14:45.012Z,99775.75
2022-08-02T15:17:17.167Z,99773.94
2022-08-02T15:19:58.099Z,99773.16
2022-08-02T15:22:31.428Z,99772.34
2022-08-02T15:25:16.910Z,99783.69
2022-08-02T15:27:47.705Z,99784.16
2022-08-02T15:30:15.642Z,99777.84
2022-08-02T15:32:52.855Z,99776.12
2022-08-02T15:35:26.402Z,99763.94
2022-08-02T15:38:01.620Z,99770.69
2022-08-02T15:40:48.430Z,99774.25
2022-08-02T15:43:27.438Z,99777.81
2022-08-02T15:46:03.639Z,99778.88
2022-08-02T15:48:32.344Z,99774.47
2022-08-02T15:51:06.495Z,99771.91
2022-08-02T15:53:36.663Z,99778.25
2022-08-02T15:58:47.465Z,99785.00
2022-08-02T16:01:25.546Z,99779.50
2022-08-02T16:04:11.853Z,99776.16
2022-08-02T16:06:39.415Z,99774.69
2022-08-02T16:09:14.705Z,99775.72
2022-08-02T16:11:43.533Z,99780.56
2022-08-02T16:14:16.582Z,99777.41
2022-08-02T16:16:49.515Z,99784.78
2022-08-02T16:19:46.623Z,99785.19
2022-08-02T16:22:05.853Z,99785.84
2022-08-02T16:24:43.402Z,99782.44
2022-08-02T16:27:17.599Z,99782.03
2022-08-02T16:29:53.647Z,99780.78
2022-08-02T16:32:37.537Z,99781.22
2022-08-02T16:35:16.525Z,99782.88
2022-08-02T16:37:52.646Z,99791.72
2022-08-02T16:40:31.409Z,99786.00
2022-08-02T16:43:08.837Z,99787.28
2022-08-02T16:48:19.465Z,99785.41
2022-08-02T16:51:27.078Z,99787.03
2022-08-02T16:54:21.523Z,99783.03
2022-08-02T16:56:50.962Z,99786.19
2022-08-02T16:59:41.479Z,99781.19
2022-08-02T17:02:18.032Z,99793.72
2022-08-02T17:08:15.238Z,99787.25
2022-08-02T17:10:23.054Z,99795.81
2022-08-02T17:12:54.563Z,99789.97
2022-08-02T17:16:01.108Z,99802.44
2022-08-02T17:18:14.655Z,99807.09
2022-08-02T17:20:56.406Z,99805.03
2022-08-02T17:26:35.755Z,99811.28
2022-08-02T17:29:15.637Z,99816.09
2022-08-02T17:32:04.768Z,99819.44
2022-08-02T17:34:38.400Z,99821.81
2022-08-02T17:37:07.421Z,99827.03
2022-08-02T17:39:43.126Z,99823.22
2022-08-02T17:42:23.291Z,99829.41
2022-08-02T17:45:16.938Z,99831.03
2022-08-02T17:50:30.580Z,99837.56
2022-08-02T17:53:09.402Z,99836.06
2022-08-02T17:55:42.584Z,99841.34
2022-08-02T17:58:21.653Z,99843.25
2022-08-02T18:01:23.875Z,99845.00
2022-08-02T18:03:57.454Z,99848.66
2022-08-02T18:06:37.644Z,99842.63
2022-08-02T18:12:02.043Z,99856.19
2022-08-02T18:14:36.341Z,99855.03
2022-08-02T18:17:20.484Z,99863.94
2022-08-02T18:22:48.631Z,99866.81
2022-08-02T18:25:36.384Z,99874.16
2022-08-02T18:28:17.485Z,99874.31
2022-08-02T18:30:51.616Z,99882.72
2022-08-02T18:33:59.368Z,99885.53
2022-08-02T18:36:24.766Z,99888.81
2022-08-02T18:38:54.400Z,99887.28
2022-08-02T18:41:27.554Z,99899.25
2022-08-02T18:43:57.465Z,99893.03
2022-08-02T18:46:38.618Z,99900.69
2022-08-02T18:54:40.518Z,99899.59
2022-08-02T18:59:54.497Z,99912.97
2022-08-02T19:05:06.872Z,99921.56
2022-08-02T19:10:29.481Z,99924.59
2022-08-02T19:13:03.843Z,99919.53
2022-08-02T19:15:55.366Z,99920.22
2022-08-02T19:21:17.572Z,99937.94
2022-08-02T19:29:43.119Z,99929.16
2022-08-02T19:32:40.688Z,99930.88
2022-08-02T19:40:34.564Z,99932.25
2022-08-02T19:45:50.281Z,99934.41
2022-08-02T19:48:30.173Z,99928.16
2022-08-02T19:51:54.986Z,99931.44
2022-08-02T19:54:13.108Z,99926.88
2022-08-02T19:56:50.488Z,99935.56
2022-08-02T19:59:25.449Z,99936.19
2022-08-02T20:02:16.130Z,99929.12
2022-08-02T20:04:57.751Z,99942.19
2022-08-02T20:07:49.817Z,99938.13
2022-08-02T20:10:24.647Z,99941.94
2022-08-02T20:12:56.140Z,99937.00
2022-08-02T20:15:56.419Z,99942.56
2022-08-02T20:18:42.912Z,99937.94
2022-08-02T20:23:55.691Z,99939.31
2022-08-02T20:31:41.676Z,99944.53
2022-08-02T20:34:12.967Z,99943.06
2022-08-02T20:36:43.468Z,99931.22
2022-08-02T20:39:42.978Z,99936.00
2022-08-02T20:42:24.004Z,99939.87
2022-08-02T20:44:56.634Z,99938.53
2022-08-02T20:47:39.864Z,99940.16
2022-08-02T20:50:35.562Z,99945.03
2022-08-02T20:53:06.413Z,99951.38
2022-08-02T20:55:36.640Z,99949.94
2022-08-02T20:58:16.318Z,99952.66
2022-08-02T21:00:46.686Z,99950.84
2022-08-02T21:03:16.445Z,99941.84
2022-08-02T21:05:55.096Z,99943.19
2022-08-02T21:08:26.014Z,99940.78
2022-08-02T21:10:55.426Z,99945.44
2022-08-02T21:13:26.672Z,99943.88
2022-08-02T21:15:57.505Z,99947.59
2022-08-02T21:18:40.158Z,99956.91
2022-08-02T21:21:09.930Z,99956.25
2022-08-02T21:23:48.530Z,99965.31
2022-08-02T21:26:27.926Z,99965.19
2022-08-02T21:29:04.020Z,99961.84
2022-08-02T21:31:36.084Z,99962.00
2022-08-02T21:34:19.252Z,99965.19
2022-08-02T21:36:50.657Z,99967.53
2022-08-02T21:39:20.648Z,99969.59
2022-08-02T21:41:49.350Z,99971.03
2022-08-02T21:44:21.433Z,99975.31
2022-08-02T21:46:53.897Z,99971.37
2022-08-02T21:49:40.938Z,99971.75
2022-08-02T21:52:13.362Z,99977.75
2022-08-02T21:54:41.238Z,99969.25
2022-08-02T21:57:16.536Z,99973.59
2022-08-02T21:59:46.348Z,99973.50
2022-08-02T22:02:16.895Z,99968.97
2022-08-02T22:04:48.057Z,99960.44
2022-08-02T22:07:23.932Z,99957.00
2022-08-02T22:09:53.642Z,99962.53
2022-08-02T22:12:27.167Z,99962.16
2022-08-02T22:15:02.224Z,99957.81
2022-08-02T22:18:00.219Z,99954.56
2022-08-02T22:20:29.175Z,99956.88
2022-08-02T22:22:57.061Z,99957.13
2022-08-02T22:25:36.037Z,99960.38
2022-08-02T22:28:36.733Z,99962.78
2022-08-02T22:30:58.289Z,99958.25
2022-08-02T22:34:00.811Z,99961.38
2022-08-02T22:36:38.721Z,99959.38
2022-08-02T22:39:19.514Z,99960.25
2022-08-02T22:42:05.686Z,99958.00
2022-08-02T22:44:35.492Z,99962.81
2022-08-02T22:47:14.951Z,99963.94
2022-08-02T22:49:53.228Z,99971.75
2022-08-02T22:52:29.487Z,99971.03
2022-08-02T22:54:57.440Z,99973.84
2022-08-02T22:57:30.378Z,99980.66
2022-08-02T22:58:38.244Z,99809.66
2022-08-02T22:58:58.994Z,99870.28
2022-08-02T23:00:00.622Z,99986.28
2022-08-02T23:02:28.221Z,99980.50
2022-08-02T23:04:58.111Z,99983.47
2022-08-02T23:07:26.966Z,99986.88
2022-08-02T23:09:54.594Z,99979.78
2022-08-02T23:12:22.141Z,99980.31
2022-08-02T23:14:54.622Z,99987.41
2022-08-02T23:17:42.914Z,99984.75
2022-08-02T23:20:13.635Z,99979.28
2022-08-02T23:22:41.236Z,99981.09
2022-08-02T23:25:10.293Z,99984.66
2022-08-02T23:27:38.974Z,99986.53
2022-08-02T23:30:19.120Z,99975.09
2022-08-02T23:32:47.558Z,99975.09
2022-08-02T23:35:17.014Z,99977.19
2022-08-02T23:37:58.878Z,99978.97
2022-08-02T23:40:39.416Z,99980.41
2022-08-02T23:43:12.424Z,99974.75
2022-08-02T23:45:46.293Z,99971.37
2022-08-02T23:48:14.958Z,99973.47
2022-08-02T23:50:42.784Z,99976.28
2022-08-02T23:53:10.701Z,99976.31
2022-08-02T23:55:38.404Z,99980.16
2022-08-02T23:58:06.186Z,99979.72
